sensor_id;sensor_type;location;lat;lon;timestamp;P1;durP1;ratioP1;P2;durP2;ratioP2
5900;SDS011;2976;49.764;9.796;2023-05-07T00:02:13;1.37;;;1.27;;
5900;SDS011;2976;49.764;9.796;2023-05-07T00:04:39;1.50;;;1.40;;
5900;SDS011;2976;49.764;9.796;2023-05-07T00:07:04;1.83;;;1.73;;
5900;SDS011;2976;49.764;9.796;2023-05-07T00:09:30;6.10;;;1.47;;
5900;SDS011;2976;49.764;9.796;2023-05-07T00:11:56;1.50;;;1.40;;
5900;SDS011;2976;49.764;9.796;2023-05-07T00:14:21;2.03;;;1.80;;
5900;SDS011;2976;49.764;9.796;2023-05-07T00:16:47;2.00;;;1.80;;
5900;SDS011;2976;49.764;9.796;2023-05-07T00:19:12;4.07;;;1.90;;
5900;SDS011;2976;49.764;9.796;2023-05-07T00:21:38;2.33;;;2.20;;
5900;SDS011;2976;49.764;9.796;2023-05-07T00:24:03;1.50;;;1.50;;
5900;SDS011;2976;49.764;9.796;2023-05-07T00:26:29;1.60;;;1.50;;
5900;SDS011;2976;49.764;9.796;2023-05-07T00:28:55;8.50;;;1.90;;
5900;SDS011;2976;49.764;9.796;2023-05-07T00:31:20;2.23;;;1.50;;
5900;SDS011;2976;49.764;9.796;2023-05-07T00:33:46;1.77;;;1.67;;
5900;SDS011;2976;49.764;9.796;2023-05-07T00:36:12;1.50;;;1.50;;
5900;SDS011;2976;49.764;9.796;2023-05-07T00:38:37;1.90;;;1.70;;
5900;SDS011;2976;49.764;9.796;2023-05-07T00:41:03;1.77;;;1.67;;
5900;SDS011;2976;49.764;9.796;2023-05-07T00:43:28;1.97;;;1.80;;
5900;SDS011;2976;49.764;9.796;2023-05-07T00:45:54;1.77;;;1.70;;
5900;SDS011;2976;49.764;9.796;2023-05-07T00:48:20;2.30;;;2.10;;
5900;SDS011;2976;49.764;9.796;2023-05-07T00:50:46;2.17;;;1.97;;
5900;SDS011;2976;49.764;9.796;2023-05-07T00:53:13;4.03;;;2.17;;
5900;SDS011;2976;49.764;9.796;2023-05-07T00:55:38;2.90;;;2.50;;
5900;SDS011;2976;49.764;9.796;2023-05-07T00:58:04;3.10;;;2.90;;
5900;SDS011;2976;49.764;9.796;2023-05-07T01:00:30;6.80;;;2.80;;
5900;SDS011;2976;49.764;9.796;2023-05-07T01:02:56;5.37;;;3.13;;
5900;SDS011;2976;49.764;9.796;2023-05-07T01:05:22;3.53;;;3.07;;
5900;SDS011;2976;49.764;9.796;2023-05-07T01:07:50;3.17;;;2.60;;
5900;SDS011;2976;49.764;9.796;2023-05-07T01:10:17;2.93;;;2.30;;
5900;SDS011;2976;49.764;9.796;2023-05-07T01:12:43;3.10;;;2.03;;
5900;SDS011;2976;49.764;9.796;2023-05-07T01:15:09;1.93;;;1.83;;
5900;SDS011;2976;49.764;9.796;2023-05-07T01:17:35;2.00;;;1.90;;
5900;SDS011;2976;49.764;9.796;2023-05-07T01:20:03;2.60;;;2.50;;
5900;SDS011;2976;49.764;9.796;2023-05-07T01:22:34;1.93;;;1.83;;
5900;SDS011;2976;49.764;9.796;2023-05-07T01:25:03;2.73;;;2.53;;
5900;SDS011;2976;49.764;9.796;2023-05-07T01:27:30;3.93;;;3.37;;
5900;SDS011;2976;49.764;9.796;2023-05-07T01:29:58;2.90;;;2.37;;
5900;SDS011;2976;49.764;9.796;2023-05-07T01:34:58;3.80;;;3.37;;
5900;SDS011;2976;49.764;9.796;2023-05-07T01:37:26;3.47;;;3.23;;
5900;SDS011;2976;49.764;9.796;2023-05-07T01:39:52;4.87;;;3.20;;
5900;SDS011;2976;49.764;9.796;2023-05-07T01:42:18;3.47;;;2.90;;
5900;SDS011;2976;49.764;9.796;2023-05-07T01:44:44;3.00;;;2.80;;
5900;SDS011;2976;49.764;9.796;2023-05-07T01:47:10;5.53;;;3.10;;
5900;SDS011;2976;49.764;9.796;2023-05-07T01:49:37;8.30;;;3.37;;
5900;SDS011;2976;49.764;9.796;2023-05-07T01:52:03;3.03;;;2.83;;
5900;SDS011;2976;49.764;9.796;2023-05-07T01:54:29;3.47;;;2.37;;
5900;SDS011;2976;49.764;9.796;2023-05-07T01:56:58;3.33;;;2.70;;
5900;SDS011;2976;49.764;9.796;2023-05-07T01:59:24;3.13;;;2.93;;
5900;SDS011;2976;49.764;9.796;2023-05-07T02:01:49;4.70;;;2.80;;
5900;SDS011;2976;49.764;9.796;2023-05-07T02:04:15;17.27;;;3.13;;
5900;SDS011;2976;49.764;9.796;2023-05-07T02:06:41;2.80;;;2.53;;
5900;SDS011;2976;49.764;9.796;2023-05-07T02:09:06;5.03;;;2.80;;
5900;SDS011;2976;49.764;9.796;2023-05-07T02:11:33;3.10;;;2.70;;
5900;SDS011;2976;49.764;9.796;2023-05-07T02:13:59;4.70;;;2.97;;
5900;SDS011;2976;49.764;9.796;2023-05-07T02:16:25;3.10;;;2.80;;
5900;SDS011;2976;49.764;9.796;2023-05-07T02:18:50;3.50;;;3.20;;
5900;SDS011;2976;49.764;9.796;2023-05-07T02:21:16;3.63;;;2.70;;
5900;SDS011;2976;49.764;9.796;2023-05-07T02:23:41;3.87;;;3.57;;
5900;SDS011;2976;49.764;9.796;2023-05-07T02:26:07;2.97;;;2.77;;
5900;SDS011;2976;49.764;9.796;2023-05-07T02:28:32;3.20;;;2.90;;
5900;SDS011;2976;49.764;9.796;2023-05-07T02:31:01;4.63;;;2.70;;
5900;SDS011;2976;49.764;9.796;2023-05-07T02:33:28;2.80;;;2.60;;
5900;SDS011;2976;49.764;9.796;2023-05-07T02:35:53;4.53;;;2.57;;
5900;SDS011;2976;49.764;9.796;2023-05-07T02:38:19;3.00;;;2.70;;
5900;SDS011;2976;49.764;9.796;2023-05-07T02:40:44;3.13;;;2.10;;
5900;SDS011;2976;49.764;9.796;2023-05-07T02:43:10;4.20;;;2.13;;
5900;SDS011;2976;49.764;9.796;2023-05-07T02:45:35;3.93;;;1.93;;
5900;SDS011;2976;49.764;9.796;2023-05-07T02:48:02;4.43;;;2.00;;
5900;SDS011;2976;49.764;9.796;2023-05-07T02:50:28;3.17;;;2.87;;
5900;SDS011;2976;49.764;9.796;2023-05-07T02:52:54;2.10;;;2.00;;
5900;SDS011;2976;49.764;9.796;2023-05-07T02:55:20;4.17;;;2.40;;
5900;SDS011;2976;49.764;9.796;2023-05-07T02:57:45;5.93;;;3.13;;
5900;SDS011;2976;49.764;9.796;2023-05-07T03:00:15;2.50;;;2.30;;
5900;SDS011;2976;49.764;9.796;2023-05-07T03:02:42;3.50;;;3.20;;
5900;SDS011;2976;49.764;9.796;2023-05-07T03:05:08;3.40;;;3.10;;
5900;SDS011;2976;49.764;9.796;2023-05-07T03:07:35;3.63;;;3.30;;
5900;SDS011;2976;49.764;9.796;2023-05-07T03:10:01;3.30;;;2.67;;
5900;SDS011;2976;49.764;9.796;2023-05-07T03:12:26;2.97;;;2.77;;
5900;SDS011;2976;49.764;9.796;2023-05-07T03:14:52;3.33;;;3.13;;
5900;SDS011;2976;49.764;9.796;2023-05-07T03:17:17;4.10;;;3.30;;
5900;SDS011;2976;49.764;9.796;2023-05-07T03:19:43;3.50;;;3.20;;
5900;SDS011;2976;49.764;9.796;2023-05-07T03:22:08;5.30;;;2.30;;
5900;SDS011;2976;49.764;9.796;2023-05-07T03:24:34;2.40;;;2.20;;
5900;SDS011;2976;49.764;9.796;2023-05-07T03:26:59;2.80;;;2.60;;
5900;SDS011;2976;49.764;9.796;2023-05-07T03:29:26;2.90;;;2.60;;
5900;SDS011;2976;49.764;9.796;2023-05-07T03:31:51;2.67;;;2.47;;
5900;SDS011;2976;49.764;9.796;2023-05-07T03:34:17;2.90;;;2.20;;
5900;SDS011;2976;49.764;9.796;2023-05-07T03:36:47;4.30;;;2.53;;
5900;SDS011;2976;49.764;9.796;2023-05-07T03:39:15;3.20;;;3.00;;
5900;SDS011;2976;49.764;9.796;2023-05-07T03:41:41;2.67;;;2.47;;
5900;SDS011;2976;49.764;9.796;2023-05-07T03:44:06;2.47;;;2.33;;
5900;SDS011;2976;49.764;9.796;2023-05-07T03:46:33;3.23;;;2.70;;
5900;SDS011;2976;49.764;9.796;2023-05-07T03:48:59;3.23;;;3.03;;
5900;SDS011;2976;49.764;9.796;2023-05-07T03:51:25;3.20;;;3.00;;
5900;SDS011;2976;49.764;9.796;2023-05-07T03:53:50;3.67;;;3.37;;
5900;SDS011;2976;49.764;9.796;2023-05-07T03:56:18;3.97;;;3.57;;
5900;SDS011;2976;49.764;9.796;2023-05-07T03:58:44;3.90;;;3.60;;
5900;SDS011;2976;49.764;9.796;2023-05-07T04:01:09;3.50;;;3.13;;
5900;SDS011;2976;49.764;9.796;2023-05-07T04:03:35;3.40;;;3.13;;
5900;SDS011;2976;49.764;9.796;2023-05-07T04:06:00;7.33;;;3.30;;
5900;SDS011;2976;49.764;9.796;2023-05-07T04:08:26;3.53;;;3.13;;
5900;SDS011;2976;49.764;9.796;2023-05-07T04:10:55;4.10;;;3.70;;
5900;SDS011;2976;49.764;9.796;2023-05-07T04:13:22;6.20;;;4.13;;
5900;SDS011;2976;49.764;9.796;2023-05-07T04:15:47;4.23;;;3.80;;
5900;SDS011;2976;49.764;9.796;2023-05-07T04:18:14;3.50;;;3.20;;
5900;SDS011;2976;49.764;9.796;2023-05-07T04:20:39;7.10;;;4.13;;
5900;SDS011;2976;49.764;9.796;2023-05-07T04:23:05;7.10;;;4.80;;
5900;SDS011;2976;49.764;9.796;2023-05-07T04:25:32;6.07;;;4.60;;
5900;SDS011;2976;49.764;9.796;2023-05-07T04:27:58;6.33;;;5.70;;
5900;SDS011;2976;49.764;9.796;2023-05-07T04:30:23;5.10;;;4.60;;
5900;SDS011;2976;49.764;9.796;2023-05-07T04:32:49;5.03;;;4.67;;
5900;SDS011;2976;49.764;9.796;2023-05-07T04:35:15;6.57;;;5.43;;
5900;SDS011;2976;49.764;9.796;2023-05-07T04:37:40;6.10;;;4.87;;
5900;SDS011;2976;49.764;9.796;2023-05-07T04:40:06;5.50;;;5.00;;
5900;SDS011;2976;49.764;9.796;2023-05-07T04:42:32;5.23;;;4.80;;
5900;SDS011;2976;49.764;9.796;2023-05-07T04:44:58;7.43;;;5.87;;
5900;SDS011;2976;49.764;9.796;2023-05-07T04:47:23;5.77;;;5.10;;
5900;SDS011;2976;49.764;9.796;2023-05-07T04:49:49;7.30;;;6.23;;
5900;SDS011;2976;49.764;9.796;2023-05-07T04:52:14;5.67;;;5.27;;
5900;SDS011;2976;49.764;9.796;2023-05-07T04:54:40;7.07;;;6.13;;
5900;SDS011;2976;49.764;9.796;2023-05-07T04:57:06;6.60;;;5.87;;
5900;SDS011;2976;49.764;9.796;2023-05-07T04:59:32;6.50;;;5.90;;
5900;SDS011;2976;49.764;9.796;2023-05-07T05:01:57;9.40;;;6.70;;
5900;SDS011;2976;49.764;9.796;2023-05-07T05:04:23;6.10;;;5.60;;
5900;SDS011;2976;49.764;9.796;2023-05-07T05:06:49;6.70;;;6.10;;
5900;SDS011;2976;49.764;9.796;2023-05-07T05:09:14;6.03;;;5.43;;
5900;SDS011;2976;49.764;9.796;2023-05-07T05:11:41;7.80;;;6.03;;
5900;SDS011;2976;49.764;9.796;2023-05-07T05:14:06;7.67;;;5.97;;
5900;SDS011;2976;49.764;9.796;2023-05-07T05:16:32;6.40;;;5.77;;
5900;SDS011;2976;49.764;9.796;2023-05-07T05:18:58;6.30;;;5.70;;
5900;SDS011;2976;49.764;9.796;2023-05-07T05:21:24;7.63;;;6.13;;
5900;SDS011;2976;49.764;9.796;2023-05-07T05:23:49;9.40;;;6.27;;
5900;SDS011;2976;49.764;9.796;2023-05-07T05:26:15;6.93;;;6.13;;
5900;SDS011;2976;49.764;9.796;2023-05-07T05:28:41;7.90;;;7.00;;
5900;SDS011;2976;49.764;9.796;2023-05-07T05:31:06;5.90;;;5.40;;
5900;SDS011;2976;49.764;9.796;2023-05-07T05:33:32;8.47;;;5.93;;
5900;SDS011;2976;49.764;9.796;2023-05-07T05:35:57;6.93;;;6.20;;
5900;SDS011;2976;49.764;9.796;2023-05-07T05:38:23;6.80;;;6.17;;
5900;SDS011;2976;49.764;9.796;2023-05-07T05:40:48;8.50;;;6.60;;
5900;SDS011;2976;49.764;9.796;2023-05-07T05:43:14;14.63;;;6.87;;
5900;SDS011;2976;49.764;9.796;2023-05-07T05:45:39;6.60;;;6.00;;
5900;SDS011;2976;49.764;9.796;2023-05-07T05:48:05;6.20;;;5.60;;
5900;SDS011;2976;49.764;9.796;2023-05-07T05:50:31;6.63;;;6.13;;
5900;SDS011;2976;49.764;9.796;2023-05-07T05:52:57;9.63;;;5.70;;
5900;SDS011;2976;49.764;9.796;2023-05-07T05:55:22;7.13;;;6.43;;
5900;SDS011;2976;49.764;9.796;2023-05-07T05:57:48;8.13;;;6.30;;
5900;SDS011;2976;49.764;9.796;2023-05-07T06:00:15;7.53;;;6.17;;
5900;SDS011;2976;49.764;9.796;2023-05-07T06:02:41;7.00;;;6.40;;
5900;SDS011;2976;49.764;9.796;2023-05-07T06:05:07;7.00;;;6.30;;
5900;SDS011;2976;49.764;9.796;2023-05-07T06:07:33;12.50;;;6.67;;
5900;SDS011;2976;49.764;9.796;2023-05-07T06:09:59;7.20;;;6.23;;
5900;SDS011;2976;49.764;9.796;2023-05-07T06:12:26;8.60;;;6.40;;
5900;SDS011;2976;49.764;9.796;2023-05-07T06:14:51;6.73;;;6.13;;
5900;SDS011;2976;49.764;9.796;2023-05-07T06:17:17;6.93;;;5.83;;
5900;SDS011;2976;49.764;9.796;2023-05-07T06:19:43;13.43;;;7.87;;
5900;SDS011;2976;49.764;9.796;2023-05-07T06:22:08;8.93;;;7.00;;
5900;SDS011;2976;49.764;9.796;2023-05-07T06:24:34;6.53;;;5.93;;
5900;SDS011;2976;49.764;9.796;2023-05-07T06:27:00;7.43;;;5.60;;
5900;SDS011;2976;49.764;9.796;2023-05-07T06:29:25;5.70;;;5.20;;
5900;SDS011;2976;49.764;9.796;2023-05-07T06:31:52;6.30;;;5.70;;
5900;SDS011;2976;49.764;9.796;2023-05-07T06:34:18;10.27;;;7.00;;
5900;SDS011;2976;49.764;9.796;2023-05-07T06:36:43;7.50;;;6.20;;
5900;SDS011;2976;49.764;9.796;2023-05-07T06:39:09;6.40;;;5.80;;
5900;SDS011;2976;49.764;9.796;2023-05-07T06:41:34;7.13;;;6.23;;
5900;SDS011;2976;49.764;9.796;2023-05-07T06:44:01;7.90;;;7.10;;
5900;SDS011;2976;49.764;9.796;2023-05-07T06:46:27;12.73;;;6.60;;
5900;SDS011;2976;49.764;9.796;2023-05-07T06:48:53;8.33;;;6.80;;
5900;SDS011;2976;49.764;9.796;2023-05-07T06:51:19;6.37;;;5.87;;
5900;SDS011;2976;49.764;9.796;2023-05-07T06:53:44;7.10;;;6.40;;
5900;SDS011;2976;49.764;9.796;2023-05-07T06:56:10;7.70;;;6.50;;
5900;SDS011;2976;49.764;9.796;2023-05-07T06:58:36;7.37;;;6.60;;
5900;SDS011;2976;49.764;9.796;2023-05-07T07:01:02;6.40;;;5.80;;
5900;SDS011;2976;49.764;9.796;2023-05-07T07:03:27;6.67;;;5.87;;
5900;SDS011;2976;49.764;9.796;2023-05-07T07:05:53;8.33;;;6.20;;
5900;SDS011;2976;49.764;9.796;2023-05-07T07:08:20;9.13;;;6.23;;
5900;SDS011;2976;49.764;9.796;2023-05-07T07:10:47;6.90;;;6.20;;
5900;SDS011;2976;49.764;9.796;2023-05-07T07:13:12;7.23;;;6.30;;
5900;SDS011;2976;49.764;9.796;2023-05-07T07:15:38;9.60;;;6.47;;
5900;SDS011;2976;49.764;9.796;2023-05-07T07:18:05;6.87;;;5.50;;
5900;SDS011;2976;49.764;9.796;2023-05-07T07:20:30;6.50;;;6.00;;
5900;SDS011;2976;49.764;9.796;2023-05-07T07:22:56;6.17;;;5.47;;
5900;SDS011;2976;49.764;9.796;2023-05-07T07:25:21;7.00;;;6.40;;
5900;SDS011;2976;49.764;9.796;2023-05-07T07:27:48;7.87;;;5.17;;
5900;SDS011;2976;49.764;9.796;2023-05-07T07:30:14;10.13;;;5.90;;
5900;SDS011;2976;49.764;9.796;2023-05-07T07:32:39;5.93;;;5.20;;
5900;SDS011;2976;49.764;9.796;2023-05-07T07:35:05;6.57;;;5.73;;
5900;SDS011;2976;49.764;9.796;2023-05-07T07:37:31;6.23;;;5.70;;
5900;SDS011;2976;49.764;9.796;2023-05-07T07:39:56;5.90;;;5.40;;
5900;SDS011;2976;49.764;9.796;2023-05-07T07:42:22;6.43;;;5.83;;
5900;SDS011;2976;49.764;9.796;2023-05-07T07:44:47;5.70;;;5.20;;
5900;SDS011;2976;49.764;9.796;2023-05-07T07:47:13;7.07;;;6.10;;
5900;SDS011;2976;49.764;9.796;2023-05-07T07:49:39;13.77;;;5.90;;
5900;SDS011;2976;49.764;9.796;2023-05-07T07:52:04;6.87;;;5.60;;
5900;SDS011;2976;49.764;9.796;2023-05-07T07:54:30;6.20;;;5.60;;
5900;SDS011;2976;49.764;9.796;2023-05-07T07:56:55;9.43;;;5.93;;
5900;SDS011;2976;49.764;9.796;2023-05-07T07:59:21;9.93;;;5.93;;
5900;SDS011;2976;49.764;9.796;2023-05-07T08:01:46;8.87;;;6.03;;
5900;SDS011;2976;49.764;9.796;2023-05-07T08:04:14;6.87;;;6.10;;
5900;SDS011;2976;49.764;9.796;2023-05-07T08:06:40;7.17;;;6.50;;
5900;SDS011;2976;49.764;9.796;2023-05-07T08:09:06;7.20;;;6.50;;
5900;SDS011;2976;49.764;9.796;2023-05-07T08:11:31;7.47;;;6.50;;
5900;SDS011;2976;49.764;9.796;2023-05-07T08:13:57;7.43;;;6.63;;
5900;SDS011;2976;49.764;9.796;2023-05-07T08:16:22;7.10;;;6.10;;
5900;SDS011;2976;49.764;9.796;2023-05-07T08:18:48;10.20;;;7.13;;
5900;SDS011;2976;49.764;9.796;2023-05-07T08:21:14;8.80;;;6.70;;
5900;SDS011;2976;49.764;9.796;2023-05-07T08:23:39;12.07;;;6.73;;
5900;SDS011;2976;49.764;9.796;2023-05-07T08:26:05;6.87;;;5.77;;
5900;SDS011;2976;49.764;9.796;2023-05-07T08:28:32;9.70;;;6.90;;
5900;SDS011;2976;49.764;9.796;2023-05-07T08:30:57;8.13;;;7.37;;
5900;SDS011;2976;49.764;9.796;2023-05-07T08:33:25;7.50;;;6.80;;
5900;SDS011;2976;49.764;9.796;2023-05-07T08:35:50;7.73;;;6.87;;
5900;SDS011;2976;49.764;9.796;2023-05-07T08:38:16;8.53;;;7.60;;
5900;SDS011;2976;49.764;9.796;2023-05-07T08:40:41;11.60;;;7.53;;
5900;SDS011;2976;49.764;9.796;2023-05-07T08:43:07;8.10;;;6.83;;
5900;SDS011;2976;49.764;9.796;2023-05-07T08:45:34;7.67;;;6.77;;
5900;SDS011;2976;49.764;9.796;2023-05-07T08:48:01;10.03;;;7.43;;
5900;SDS011;2976;49.764;9.796;2023-05-07T08:50:28;9.60;;;6.60;;
5900;SDS011;2976;49.764;9.796;2023-05-07T08:52:54;12.57;;;7.50;;
5900;SDS011;2976;49.764;9.796;2023-05-07T08:55:21;7.17;;;6.47;;
5900;SDS011;2976;49.764;9.796;2023-05-07T08:57:48;7.10;;;6.10;;
5900;SDS011;2976;49.764;9.796;2023-05-07T09:00:13;8.63;;;6.40;;
5900;SDS011;2976;49.764;9.796;2023-05-07T09:02:39;6.97;;;6.37;;
5900;SDS011;2976;49.764;9.796;2023-05-07T09:05:05;7.83;;;7.07;;
5900;SDS011;2976;49.764;9.796;2023-05-07T09:07:31;7.87;;;7.10;;
5900;SDS011;2976;49.764;9.796;2023-05-07T09:09:57;8.00;;;6.43;;
5900;SDS011;2976;49.764;9.796;2023-05-07T09:12:23;8.23;;;7.33;;
5900;SDS011;2976;49.764;9.796;2023-05-07T09:14:48;7.73;;;6.97;;
5900;SDS011;2976;49.764;9.796;2023-05-07T09:17:15;8.20;;;6.30;;
5900;SDS011;2976;49.764;9.796;2023-05-07T09:19:42;7.30;;;6.57;;
5900;SDS011;2976;49.764;9.796;2023-05-07T09:22:10;8.20;;;6.87;;
5900;SDS011;2976;49.764;9.796;2023-05-07T09:24:36;6.33;;;5.47;;
5900;SDS011;2976;49.764;9.796;2023-05-07T09:27:03;7.27;;;6.47;;
5900;SDS011;2976;49.764;9.796;2023-05-07T09:29:29;8.27;;;7.03;;
5900;SDS011;2976;49.764;9.796;2023-05-07T09:32:00;7.87;;;6.17;;
5900;SDS011;2976;49.764;9.796;2023-05-07T09:34:30;9.90;;;6.70;;
5900;SDS011;2976;49.764;9.796;2023-05-07T09:36:56;6.33;;;5.83;;
5900;SDS011;2976;49.764;9.796;2023-05-07T09:39:26;5.70;;;5.20;;
5900;SDS011;2976;49.764;9.796;2023-05-07T09:42:03;6.90;;;6.23;;
5900;SDS011;2976;49.764;9.796;2023-05-07T09:44:29;6.40;;;5.03;;
5900;SDS011;2976;49.764;9.796;2023-05-07T09:46:56;9.20;;;6.27;;
5900;SDS011;2976;49.764;9.796;2023-05-07T09:49:24;6.20;;;5.63;;
5900;SDS011;2976;49.764;9.796;2023-05-07T09:51:55;6.10;;;5.50;;
5900;SDS011;2976;49.764;9.796;2023-05-07T09:54:21;7.17;;;6.47;;
5900;SDS011;2976;49.764;9.796;2023-05-07T09:56:52;5.43;;;4.93;;
5900;SDS011;2976;49.764;9.796;2023-05-07T09:59:18;6.10;;;5.50;;
5900;SDS011;2976;49.764;9.796;2023-05-07T10:01:45;5.30;;;4.90;;
5900;SDS011;2976;49.764;9.796;2023-05-07T10:04:11;7.73;;;4.93;;
5900;SDS011;2976;49.764;9.796;2023-05-07T10:06:37;5.80;;;5.20;;
5900;SDS011;2976;49.764;9.796;2023-05-07T10:09:03;5.80;;;5.30;;
5900;SDS011;2976;49.764;9.796;2023-05-07T10:11:33;6.53;;;5.87;;
5900;SDS011;2976;49.764;9.796;2023-05-07T10:14:00;6.47;;;5.90;;
5900;SDS011;2976;49.764;9.796;2023-05-07T10:16:27;6.83;;;6.13;;
5900;SDS011;2976;49.764;9.796;2023-05-07T10:18:56;7.27;;;6.63;;
5900;SDS011;2976;49.764;9.796;2023-05-07T10:21:23;6.47;;;5.87;;
5900;SDS011;2976;49.764;9.796;2023-05-07T10:23:58;6.30;;;5.80;;
5900;SDS011;2976;49.764;9.796;2023-05-07T10:26:28;7.00;;;6.30;;
5900;SDS011;2976;49.764;9.796;2023-05-07T10:28:58;7.87;;;5.87;;
5900;SDS011;2976;49.764;9.796;2023-05-07T10:31:56;6.67;;;5.97;;
5900;SDS011;2976;49.764;9.796;2023-05-07T10:34:29;6.90;;;6.30;;
5900;SDS011;2976;49.764;9.796;2023-05-07T10:37:00;6.67;;;6.00;;
5900;SDS011;2976;49.764;9.796;2023-05-07T10:39:27;6.17;;;5.67;;
5900;SDS011;2976;49.764;9.796;2023-05-07T10:41:53;6.57;;;5.60;;
5900;SDS011;2976;49.764;9.796;2023-05-07T10:44:25;5.90;;;5.30;;
5900;SDS011;2976;49.764;9.796;2023-05-07T10:47:03;5.80;;;5.30;;
5900;SDS011;2976;49.764;9.796;2023-05-07T10:49:30;6.20;;;5.70;;
5900;SDS011;2976;49.764;9.796;2023-05-07T10:52:16;4.87;;;3.77;;
5900;SDS011;2976;49.764;9.796;2023-05-07T10:54:45;6.80;;;5.50;;
5900;SDS011;2976;49.764;9.796;2023-05-07T11:05:26;5.83;;;5.23;;
5900;SDS011;2976;49.764;9.796;2023-05-07T11:07:54;6.97;;;5.67;;
5900;SDS011;2976;49.764;9.796;2023-05-07T11:10:20;11.43;;;4.83;;
5900;SDS011;2976;49.764;9.796;2023-05-07T11:12:47;6.37;;;5.03;;
5900;SDS011;2976;49.764;9.796;2023-05-07T11:15:33;5.37;;;4.87;;
5900;SDS011;2976;49.764;9.796;2023-05-07T11:18:02;4.37;;;4.03;;
5900;SDS011;2976;49.764;9.796;2023-05-07T11:26:05;5.20;;;4.80;;
5900;SDS011;2976;49.764;9.796;2023-05-07T11:28:38;5.43;;;5.03;;
5900;SDS011;2976;49.764;9.796;2023-05-07T11:31:05;5.13;;;4.30;;
5900;SDS011;2976;49.764;9.796;2023-05-07T11:33:31;5.03;;;4.53;;
5900;SDS011;2976;49.764;9.796;2023-05-07T11:35:57;4.47;;;4.07;;
5900;SDS011;2976;49.764;9.796;2023-05-07T11:38:24;4.53;;;4.23;;
5900;SDS011;2976;49.764;9.796;2023-05-07T11:40:51;5.60;;;3.70;;
5900;SDS011;2976;49.764;9.796;2023-05-07T11:43:18;4.63;;;3.80;;
5900;SDS011;2976;49.764;9.796;2023-05-07T11:45:44;5.27;;;4.60;;
5900;SDS011;2976;49.764;9.796;2023-05-07T11:48:12;7.97;;;5.00;;
5900;SDS011;2976;49.764;9.796;2023-05-07T11:53:27;4.40;;;4.00;;
5900;SDS011;2976;49.764;9.796;2023-05-07T11:55:59;4.37;;;3.97;;
5900;SDS011;2976;49.764;9.796;2023-05-07T11:58:25;4.40;;;3.90;;
5900;SDS011;2976;49.764;9.796;2023-05-07T12:00:51;4.53;;;3.33;;
5900;SDS011;2976;49.764;9.796;2023-05-07T12:03:17;4.20;;;3.80;;
5900;SDS011;2976;49.764;9.796;2023-05-07T12:05:44;7.27;;;3.37;;
5900;SDS011;2976;49.764;9.796;2023-05-07T12:08:28;3.60;;;3.30;;
5900;SDS011;2976;49.764;9.796;2023-05-07T12:10:54;4.90;;;4.00;;
5900;SDS011;2976;49.764;9.796;2023-05-07T12:13:21;14.07;;;4.23;;
5900;SDS011;2976;49.764;9.796;2023-05-07T12:15:51;4.10;;;3.73;;
5900;SDS011;2976;49.764;9.796;2023-05-07T12:18:17;6.53;;;3.70;;
5900;SDS011;2976;49.764;9.796;2023-05-07T12:20:43;4.03;;;3.63;;
5900;SDS011;2976;49.764;9.796;2023-05-07T12:23:10;4.57;;;3.57;;
5900;SDS011;2976;49.764;9.796;2023-05-07T12:25:36;3.93;;;2.90;;
5900;SDS011;2976;49.764;9.796;2023-05-07T12:28:03;3.20;;;3.00;;
5900;SDS011;2976;49.764;9.796;2023-05-07T12:30:36;3.83;;;3.43;;
5900;SDS011;2976;49.764;9.796;2023-05-07T12:33:02;4.47;;;3.30;;
5900;SDS011;2976;49.764;9.796;2023-05-07T12:35:30;3.97;;;3.67;;
5900;SDS011;2976;49.764;9.796;2023-05-07T12:37:57;5.87;;;4.93;;
5900;SDS011;2976;49.764;9.796;2023-05-07T12:40:29;3.47;;;3.23;;
5900;SDS011;2976;49.764;9.796;2023-05-07T12:43:15;7.73;;;3.00;;
5900;SDS011;2976;49.764;9.796;2023-05-07T12:45:44;2.33;;;2.23;;
5900;SDS011;2976;49.764;9.796;2023-05-07T12:48:11;6.13;;;2.77;;
5900;SDS011;2976;49.764;9.796;2023-05-07T12:50:37;3.43;;;3.10;;
5900;SDS011;2976;49.764;9.796;2023-05-07T12:53:03;3.63;;;2.70;;
5900;SDS011;2976;49.764;9.796;2023-05-07T12:55:39;2.23;;;2.13;;
5900;SDS011;2976;49.764;9.796;2023-05-07T12:58:07;2.40;;;2.30;;
5900;SDS011;2976;49.764;9.796;2023-05-07T13:00:33;2.63;;;2.13;;
5900;SDS011;2976;49.764;9.796;2023-05-07T13:03:00;4.57;;;2.17;;
5900;SDS011;2976;49.764;9.796;2023-05-07T13:05:26;2.00;;;1.90;;
5900;SDS011;2976;49.764;9.796;2023-05-07T13:07:55;2.50;;;2.20;;
5900;SDS011;2976;49.764;9.796;2023-05-07T13:10:21;2.10;;;2.00;;
5900;SDS011;2976;49.764;9.796;2023-05-07T13:12:48;2.43;;;2.23;;
5900;SDS011;2976;49.764;9.796;2023-05-07T13:15:14;2.50;;;2.30;;
5900;SDS011;2976;49.764;9.796;2023-05-07T13:17:40;2.00;;;1.90;;
5900;SDS011;2976;49.764;9.796;2023-05-07T13:20:06;1.90;;;1.80;;
5900;SDS011;2976;49.764;9.796;2023-05-07T13:22:34;2.60;;;2.30;;
5900;SDS011;2976;49.764;9.796;2023-05-07T13:24:59;2.30;;;2.10;;
5900;SDS011;2976;49.764;9.796;2023-05-07T13:27:25;2.27;;;2.10;;
5900;SDS011;2976;49.764;9.796;2023-05-07T13:29:50;2.30;;;2.20;;
5900;SDS011;2976;49.764;9.796;2023-05-07T13:32:16;3.73;;;2.23;;
5900;SDS011;2976;49.764;9.796;2023-05-07T13:34:42;1.87;;;1.73;;
5900;SDS011;2976;49.764;9.796;2023-05-07T13:37:07;3.30;;;2.50;;
5900;SDS011;2976;49.764;9.796;2023-05-07T13:39:33;2.43;;;2.23;;
5900;SDS011;2976;49.764;9.796;2023-05-07T13:41:58;2.43;;;1.97;;
5900;SDS011;2976;49.764;9.796;2023-05-07T13:44:24;2.10;;;2.00;;
5900;SDS011;2976;49.764;9.796;2023-05-07T13:46:50;6.13;;;2.23;;
5900;SDS011;2976;49.764;9.796;2023-05-07T13:49:16;4.63;;;1.97;;
5900;SDS011;2976;49.764;9.796;2023-05-07T13:51:41;2.53;;;1.80;;
5900;SDS011;2976;49.764;9.796;2023-05-07T13:54:07;5.00;;;2.07;;
5900;SDS011;2976;49.764;9.796;2023-05-07T13:56:32;1.80;;;1.70;;
5900;SDS011;2976;49.764;9.796;2023-05-07T13:58:58;1.93;;;1.83;;
5900;SDS011;2976;49.764;9.796;2023-05-07T14:01:24;7.13;;;1.63;;
5900;SDS011;2976;49.764;9.796;2023-05-07T14:03:50;6.00;;;1.53;;
5900;SDS011;2976;49.764;9.796;2023-05-07T14:06:15;1.80;;;1.70;;
5900;SDS011;2976;49.764;9.796;2023-05-07T14:08:41;1.80;;;1.70;;
5900;SDS011;2976;49.764;9.796;2023-05-07T14:11:06;1.80;;;1.67;;
5900;SDS011;2976;49.764;9.796;2023-05-07T14:13:32;2.40;;;1.60;;
5900;SDS011;2976;49.764;9.796;2023-05-07T14:15:59;1.30;;;1.30;;
5900;SDS011;2976;49.764;9.796;2023-05-07T14:18:25;4.00;;;1.73;;
5900;SDS011;2976;49.764;9.796;2023-05-07T14:20:51;1.70;;;1.60;;
5900;SDS011;2976;49.764;9.796;2023-05-07T14:23:16;2.37;;;2.17;;
5900;SDS011;2976;49.764;9.796;2023-05-07T14:25:44;4.15;;;1.80;;
5900;SDS011;2976;49.764;9.796;2023-05-07T14:28:11;3.27;;;1.30;;
5900;SDS011;2976;49.764;9.796;2023-05-07T14:30:36;4.93;;;1.90;;
5900;SDS011;2976;49.764;9.796;2023-05-07T14:33:02;2.40;;;1.50;;
5900;SDS011;2976;49.764;9.796;2023-05-07T14:35:27;1.60;;;1.50;;
5900;SDS011;2976;49.764;9.796;2023-05-07T14:37:53;3.63;;;1.80;;
5900;SDS011;2976;49.764;9.796;2023-05-07T14:40:18;1.80;;;1.70;;
5900;SDS011;2976;49.764;9.796;2023-05-07T14:42:44;1.87;;;1.70;;
5900;SDS011;2976;49.764;9.796;2023-05-07T14:45:10;1.60;;;1.50;;
5900;SDS011;2976;49.764;9.796;2023-05-07T14:47:35;3.60;;;1.87;;
5900;SDS011;2976;49.764;9.796;2023-05-07T14:50:01;1.77;;;1.67;;
5900;SDS011;2976;49.764;9.796;2023-05-07T14:52:27;6.50;;;2.13;;
5900;SDS011;2976;49.764;9.796;2023-05-07T14:54:52;2.47;;;2.27;;
5900;SDS011;2976;49.764;9.796;2023-05-07T14:57:18;2.20;;;2.10;;
5900;SDS011;2976;49.764;9.796;2023-05-07T14:59:44;2.43;;;2.33;;
5900;SDS011;2976;49.764;9.796;2023-05-07T15:02:10;3.50;;;1.93;;
5900;SDS011;2976;49.764;9.796;2023-05-07T15:04:37;2.10;;;2.00;;
5900;SDS011;2976;49.764;9.796;2023-05-07T15:07:10;4.13;;;2.17;;
5900;SDS011;2976;49.764;9.796;2023-05-07T15:09:36;2.60;;;2.13;;
5900;SDS011;2976;49.764;9.796;2023-05-07T15:12:02;6.23;;;2.27;;
5900;SDS011;2976;49.764;9.796;2023-05-07T15:14:28;2.33;;;2.13;;
5900;SDS011;2976;49.764;9.796;2023-05-07T15:16:54;3.40;;;3.03;;
5900;SDS011;2976;49.764;9.796;2023-05-07T15:19:20;2.83;;;2.50;;
5900;SDS011;2976;49.764;9.796;2023-05-07T15:21:47;2.93;;;2.80;;
5900;SDS011;2976;49.764;9.796;2023-05-07T15:24:12;3.33;;;3.13;;
5900;SDS011;2976;49.764;9.796;2023-05-07T15:26:38;3.30;;;3.00;;
5900;SDS011;2976;49.764;9.796;2023-05-07T15:29:03;3.27;;;2.97;;
5900;SDS011;2976;49.764;9.796;2023-05-07T15:31:34;3.70;;;2.80;;